sensor_id;sensor_type;location;lat;lon;timestamp;temperature;humidity
44851;DHT22;30583;48.714;9.386;2023-07-31T00:00:38;17.50;69.10
44851;DHT22;30583;48.714;9.386;2023-07-31T00:03:04;17.20;69.50
44851;DHT22;30583;48.714;9.386;2023-07-31T00:05:30;17.50;69.40
44851;DHT22;30583;48.714;9.386;2023-07-31T00:07:55;17.80;68.40
44851;DHT22;30583;48.714;9.386;2023-07-31T00:10:21;18.00;67.90
44851;DHT22;30583;48.714;9.386;2023-07-31T00:12:47;18.00;68.20
44851;DHT22;30583;48.714;9.386;2023-07-31T00:15:14;18.10;68.00
44851;DHT22;30583;48.714;9.386;2023-07-31T00:17:39;17.60;69.30
44851;DHT22;30583;48.714;9.386;2023-07-31T00:20:05;17.60;69.30
44851;DHT22;30583;48.714;9.386;2023-07-31T00:22:31;17.60;69.20
44851;DHT22;30583;48.714;9.386;2023-07-31T00:24:57;17.30;70.70
44851;DHT22;30583;48.714;9.386;2023-07-31T00:27:23;17.40;70.30
44851;DHT22;30583;48.714;9.386;2023-07-31T00:29:48;17.50;70.00
44851;DHT22;30583;48.714;9.386;2023-07-31T00:32:14;17.30;69.60
44851;DHT22;30583;48.714;9.386;2023-07-31T00:34:40;17.60;69.10
44851;DHT22;30583;48.714;9.386;2023-07-31T00:37:05;17.80;68.70
44851;DHT22;30583;48.714;9.386;2023-07-31T00:39:34;17.20;70.00
44851;DHT22;30583;48.714;9.386;2023-07-31T00:42:00;17.20;70.20
44851;DHT22;30583;48.714;9.386;2023-07-31T00:44:25;17.00;70.60
44851;DHT22;30583;48.714;9.386;2023-07-31T00:46:51;16.90;71.60
44851;DHT22;30583;48.714;9.386;2023-07-31T00:49:17;17.10;70.90
44851;DHT22;30583;48.714;9.386;2023-07-31T00:51:43;16.90;71.20
44851;DHT22;30583;48.714;9.386;2023-07-31T00:54:09;16.60;71.90
44851;DHT22;30583;48.714;9.386;2023-07-31T00:56:35;16.70;71.80
44851;DHT22;30583;48.714;9.386;2023-07-31T00:59:00;16.50;72.20
44851;DHT22;30583;48.714;9.386;2023-07-31T01:01:26;16.10;73.30
44851;DHT22;30583;48.714;9.386;2023-07-31T01:03:53;16.30;73.10
44851;DHT22;30583;48.714;9.386;2023-07-31T01:06:33;16.30;72.70
44851;DHT22;30583;48.714;9.386;2023-07-31T01:09:20;16.40;72.90
44851;DHT22;30583;48.714;9.386;2023-07-31T01:11:52;16.70;72.10
44851;DHT22;30583;48.714;9.386;2023-07-31T01:14:18;16.60;71.80
44851;DHT22;30583;48.714;9.386;2023-07-31T01:16:44;16.90;71.70
44851;DHT22;30583;48.714;9.386;2023-07-31T01:19:11;17.10;70.50
44851;DHT22;30583;48.714;9.386;2023-07-31T01:27:47;17.10;70.90
44851;DHT22;30583;48.714;9.386;2023-07-31T01:30:17;16.90;71.60
44851;DHT22;30583;48.714;9.386;2023-07-31T01:32:47;16.80;71.70
44851;DHT22;30583;48.714;9.386;2023-07-31T01:35:13;16.70;72.00
44851;DHT22;30583;48.714;9.386;2023-07-31T01:37:38;16.40;73.10
44851;DHT22;30583;48.714;9.386;2023-07-31T01:40:05;16.40;73.40
44851;DHT22;30583;48.714;9.386;2023-07-31T01:42:31;16.70;72.10
44851;DHT22;30583;48.714;9.386;2023-07-31T01:44:57;16.60;72.50
44851;DHT22;30583;48.714;9.386;2023-07-31T01:47:22;16.60;71.90
44851;DHT22;30583;48.714;9.386;2023-07-31T01:49:49;16.70;71.90
44851;DHT22;30583;48.714;9.386;2023-07-31T01:52:14;16.80;71.20
44851;DHT22;30583;48.714;9.386;2023-07-31T01:54:40;16.00;73.40
44851;DHT22;30583;48.714;9.386;2023-07-31T01:57:06;16.30;73.30
44851;DHT22;30583;48.714;9.386;2023-07-31T01:59:31;16.20;73.10
44851;DHT22;30583;48.714;9.386;2023-07-31T02:01:57;16.40;72.50
44851;DHT22;30583;48.714;9.386;2023-07-31T02:04:22;16.50;72.30
44851;DHT22;30583;48.714;9.386;2023-07-31T02:06:48;16.60;71.40
44851;DHT22;30583;48.714;9.386;2023-07-31T02:09:14;16.70;71.20
44851;DHT22;30583;48.714;9.386;2023-07-31T02:11:39;16.70;71.30
44851;DHT22;30583;48.714;9.386;2023-07-31T02:14:05;16.70;71.00
44851;DHT22;30583;48.714;9.386;2023-07-31T02:16:30;16.70;71.10
44851;DHT22;30583;48.714;9.386;2023-07-31T02:18:56;16.30;71.40
44851;DHT22;30583;48.714;9.386;2023-07-31T02:21:21;16.20;72.50
44851;DHT22;30583;48.714;9.386;2023-07-31T02:23:47;16.50;71.60
44851;DHT22;30583;48.714;9.386;2023-07-31T02:26:13;16.30;72.10
44851;DHT22;30583;48.714;9.386;2023-07-31T02:28:38;16.40;71.90
44851;DHT22;30583;48.714;9.386;2023-07-31T02:31:04;16.30;72.30
44851;DHT22;30583;48.714;9.386;2023-07-31T02:33:29;16.10;72.70
44851;DHT22;30583;48.714;9.386;2023-07-31T02:35:55;16.20;73.00
44851;DHT22;30583;48.714;9.386;2023-07-31T02:38:20;16.40;72.20
44851;DHT22;30583;48.714;9.386;2023-07-31T02:40:46;16.50;72.00
44851;DHT22;30583;48.714;9.386;2023-07-31T02:43:12;16.20;73.00
44851;DHT22;30583;48.714;9.386;2023-07-31T02:45:37;16.00;73.50
44851;DHT22;30583;48.714;9.386;2023-07-31T02:48:03;15.90;73.60
44851;DHT22;30583;48.714;9.386;2023-07-31T02:50:28;16.10;73.70
44851;DHT22;30583;48.714;9.386;2023-07-31T02:52:54;16.20;72.70
44851;DHT22;30583;48.714;9.386;2023-07-31T02:55:20;16.50;71.90
44851;DHT22;30583;48.714;9.386;2023-07-31T02:57:45;16.30;72.20
44851;DHT22;30583;48.714;9.386;2023-07-31T03:00:11;16.00;73.50
44851;DHT22;30583;48.714;9.386;2023-07-31T03:02:37;15.80;74.20
44851;DHT22;30583;48.714;9.386;2023-07-31T03:05:02;15.50;74.40
44851;DHT22;30583;48.714;9.386;2023-07-31T03:07:28;15.60;74.50
44851;DHT22;30583;48.714;9.386;2023-07-31T03:09:55;15.80;73.20
44851;DHT22;30583;48.714;9.386;2023-07-31T03:12:21;15.70;73.70
44851;DHT22;30583;48.714;9.386;2023-07-31T03:14:46;15.60;74.10
44851;DHT22;30583;48.714;9.386;2023-07-31T03:17:12;15.30;74.90
44851;DHT22;30583;48.714;9.386;2023-07-31T03:19:38;15.40;75.00
44851;DHT22;30583;48.714;9.386;2023-07-31T03:22:03;15.70;74.40
44851;DHT22;30583;48.714;9.386;2023-07-31T03:24:29;16.00;73.60
44851;DHT22;30583;48.714;9.386;2023-07-31T03:26:55;15.90;73.60
44851;DHT22;30583;48.714;9.386;2023-07-31T03:29:20;15.50;74.70
44851;DHT22;30583;48.714;9.386;2023-07-31T03:31:46;15.30;75.60
44851;DHT22;30583;48.714;9.386;2023-07-31T03:34:11;15.10;76.80
44851;DHT22;30583;48.714;9.386;2023-07-31T03:36:37;15.30;75.80
44851;DHT22;30583;48.714;9.386;2023-07-31T03:39:02;15.50;75.20
44851;DHT22;30583;48.714;9.386;2023-07-31T03:41:28;15.90;73.80
44851;DHT22;30583;48.714;9.386;2023-07-31T03:43:54;15.80;74.00
44851;DHT22;30583;48.714;9.386;2023-07-31T03:46:23;15.70;74.10
44851;DHT22;30583;48.714;9.386;2023-07-31T03:48:49;15.40;75.10
44851;DHT22;30583;48.714;9.386;2023-07-31T03:51:15;15.50;74.90
44851;DHT22;30583;48.714;9.386;2023-07-31T03:53:42;15.30;74.60
44851;DHT22;30583;48.714;9.386;2023-07-31T03:56:07;15.40;75.30
44851;DHT22;30583;48.714;9.386;2023-07-31T03:58:33;15.50;74.60
44851;DHT22;30583;48.714;9.386;2023-07-31T04:00:58;15.50;74.80
44851;DHT22;30583;48.714;9.386;2023-07-31T04:03:24;15.30;74.80
44851;DHT22;30583;48.714;9.386;2023-07-31T04:05:49;15.10;75.80
44851;DHT22;30583;48.714;9.386;2023-07-31T04:08:15;14.70;77.10
44851;DHT22;30583;48.714;9.386;2023-07-31T04:10:40;15.00;76.50
44851;DHT22;30583;48.714;9.386;2023-07-31T04:13:06;15.00;76.20
44851;DHT22;30583;48.714;9.386;2023-07-31T04:15:31;15.30;75.40
44851;DHT22;30583;48.714;9.386;2023-07-31T04:17:57;15.20;75.30
44851;DHT22;30583;48.714;9.386;2023-07-31T04:20:23;15.60;74.50
44851;DHT22;30583;48.714;9.386;2023-07-31T04:22:49;15.70;74.10
44851;DHT22;30583;48.714;9.386;2023-07-31T04:25:14;15.50;74.60
44851;DHT22;30583;48.714;9.386;2023-07-31T04:27:40;15.70;74.60
44851;DHT22;30583;48.714;9.386;2023-07-31T04:30:06;15.20;75.90
44851;DHT22;30583;48.714;9.386;2023-07-31T04:32:32;15.20;76.00
44851;DHT22;30583;48.714;9.386;2023-07-31T04:34:58;15.40;75.90
44851;DHT22;30583;48.714;9.386;2023-07-31T04:37:23;15.30;76.10
44851;DHT22;30583;48.714;9.386;2023-07-31T04:39:49;15.30;75.90
44851;DHT22;30583;48.714;9.386;2023-07-31T04:42:14;15.30;76.00
44851;DHT22;30583;48.714;9.386;2023-07-31T04:44:40;15.40;76.10
44851;DHT22;30583;48.714;9.386;2023-07-31T04:47:05;15.70;75.40
44851;DHT22;30583;48.714;9.386;2023-07-31T04:49:32;15.70;75.10
44851;DHT22;30583;48.714;9.386;2023-07-31T04:51:58;16.20;74.20
44851;DHT22;30583;48.714;9.386;2023-07-31T04:54:23;19.90;69.20
44851;DHT22;30583;48.714;9.386;2023-07-31T04:56:49;20.80;64.10
44851;DHT22;30583;48.714;9.386;2023-07-31T04:59:14;20.20;66.00
44851;DHT22;30583;48.714;9.386;2023-07-31T05:01:40;20.00;60.80
44851;DHT22;30583;48.714;9.386;2023-07-31T05:04:05;17.60;67.50
44851;DHT22;30583;48.714;9.386;2023-07-31T05:06:31;16.90;70.50
44851;DHT22;30583;48.714;9.386;2023-07-31T05:08:57;16.40;72.40
44851;DHT22;30583;48.714;9.386;2023-07-31T05:11:22;16.20;73.40
44851;DHT22;30583;48.714;9.386;2023-07-31T05:13:48;16.20;73.70
44851;DHT22;30583;48.714;9.386;2023-07-31T05:16:13;15.90;74.50
44851;DHT22;30583;48.714;9.386;2023-07-31T05:18:39;16.20;73.80
44851;DHT22;30583;48.714;9.386;2023-07-31T05:21:04;16.30;73.30
44851;DHT22;30583;48.714;9.386;2023-07-31T05:23:30;16.20;73.90
44851;DHT22;30583;48.714;9.386;2023-07-31T05:26:06;16.00;74.60
44851;DHT22;30583;48.714;9.386;2023-07-31T05:28:33;15.90;74.60
44851;DHT22;30583;48.714;9.386;2023-07-31T05:31:03;16.00;74.40
44851;DHT22;30583;48.714;9.386;2023-07-31T05:33:29;16.30;73.50
44851;DHT22;30583;48.714;9.386;2023-07-31T05:35:54;16.40;73.00
44851;DHT22;30583;48.714;9.386;2023-07-31T05:38:20;15.90;74.10
44851;DHT22;30583;48.714;9.386;2023-07-31T05:40:46;16.20;74.00
44851;DHT22;30583;48.714;9.386;2023-07-31T05:43:12;16.40;72.20
44851;DHT22;30583;48.714;9.386;2023-07-31T05:45:37;16.60;71.90
44851;DHT22;30583;48.714;9.386;2023-07-31T05:48:04;16.70;71.40
44851;DHT22;30583;48.714;9.386;2023-07-31T05:50:30;16.90;71.10
44851;DHT22;30583;48.714;9.386;2023-07-31T05:52:55;16.90;71.30
44851;DHT22;30583;48.714;9.386;2023-07-31T05:55:21;16.60;72.20
44851;DHT22;30583;48.714;9.386;2023-07-31T05:57:47;16.70;71.90
44851;DHT22;30583;48.714;9.386;2023-07-31T06:00:13;16.80;71.70
44851;DHT22;30583;48.714;9.386;2023-07-31T06:02:39;16.70;71.70
44851;DHT22;30583;48.714;9.386;2023-07-31T06:05:05;16.50;71.80
44851;DHT22;30583;48.714;9.386;2023-07-31T06:07:34;16.70;71.90
44851;DHT22;30583;48.714;9.386;2023-07-31T06:09:59;16.90;71.50
44851;DHT22;30583;48.714;9.386;2023-07-31T06:12:35;17.20;70.70
44851;DHT22;30583;48.714;9.386;2023-07-31T06:15:02;17.00;71.00
44851;DHT22;30583;48.714;9.386;2023-07-31T06:17:28;17.20;71.40
44851;DHT22;30583;48.714;9.386;2023-07-31T06:19:54;17.20;71.10
44851;DHT22;30583;48.714;9.386;2023-07-31T06:22:20;17.30;70.70
44851;DHT22;30583;48.714;9.386;2023-07-31T06:24:46;17.30;70.80
44851;DHT22;30583;48.714;9.386;2023-07-31T06:27:11;17.60;70.50
44851;DHT22;30583;48.714;9.386;2023-07-31T06:29:37;17.30;71.30
44851;DHT22;30583;48.714;9.386;2023-07-31T06:32:03;17.40;71.70
44851;DHT22;30583;48.714;9.386;2023-07-31T06:34:29;17.30;71.70
44851;DHT22;30583;48.714;9.386;2023-07-31T06:36:56;17.20;72.30
44851;DHT22;30583;48.714;9.386;2023-07-31T06:39:21;17.50;71.20
44851;DHT22;30583;48.714;9.386;2023-07-31T06:41:47;17.60;71.10
44851;DHT22;30583;48.714;9.386;2023-07-31T06:44:12;17.80;70.20
44851;DHT22;30583;48.714;9.386;2023-07-31T06:46:38;18.00;69.70
44851;DHT22;30583;48.714;9.386;2023-07-31T06:49:03;18.00;69.40
44851;DHT22;30583;48.714;9.386;2023-07-31T06:51:29;18.10;69.40
44851;DHT22;30583;48.714;9.386;2023-07-31T06:53:57;18.40;68.80
44851;DHT22;30583;48.714;9.386;2023-07-31T06:56:23;18.70;68.40
44851;DHT22;30583;48.714;9.386;2023-07-31T06:58:48;18.70;67.90
44851;DHT22;30583;48.714;9.386;2023-07-31T07:01:14;18.70;68.40
44851;DHT22;30583;48.714;9.386;2023-07-31T07:03:40;18.90;68.10
44851;DHT22;30583;48.714;9.386;2023-07-31T07:06:05;19.00;67.60
44851;DHT22;30583;48.714;9.386;2023-07-31T07:08:31;19.10;67.70
44851;DHT22;30583;48.714;9.386;2023-07-31T07:10:56;19.10;67.80
44851;DHT22;30583;48.714;9.386;2023-07-31T07:13:22;19.20;67.40
44851;DHT22;30583;48.714;9.386;2023-07-31T07:15:49;19.30;67.30
44851;DHT22;30583;48.714;9.386;2023-07-31T07:18:15;19.30;66.90
44851;DHT22;30583;48.714;9.386;2023-07-31T07:20:46;19.30;66.80
44851;DHT22;30583;48.714;9.386;2023-07-31T07:23:13;19.30;66.80
44851;DHT22;30583;48.714;9.386;2023-07-31T07:25:38;19.40;66.10
44851;DHT22;30583;48.714;9.386;2023-07-31T07:28:04;19.40;65.50
44851;DHT22;30583;48.714;9.386;2023-07-31T07:30:29;19.60;66.50
44851;DHT22;30583;48.714;9.386;2023-07-31T07:32:55;19.60;64.50
44851;DHT22;30583;48.714;9.386;2023-07-31T07:35:20;19.80;62.20
44851;DHT22;30583;48.714;9.386;2023-07-31T07:37:48;19.80;59.70
44851;DHT22;30583;48.714;9.386;2023-07-31T07:40:15;20.00;59.00
44851;DHT22;30583;48.714;9.386;2023-07-31T07:42:41;20.20;58.30
44851;DHT22;30583;48.714;9.386;2023-07-31T07:45:07;20.20;58.10
44851;DHT22;30583;48.714;9.386;2023-07-31T07:47:32;20.10;58.00
44851;DHT22;30583;48.714;9.386;2023-07-31T07:49:58;20.00;58.50
44851;DHT22;30583;48.714;9.386;2023-07-31T07:52:24;20.20;59.40
44851;DHT22;30583;48.714;9.386;2023-07-31T07:54:49;20.20;59.20
44851;DHT22;30583;48.714;9.386;2023-07-31T07:57:15;20.40;58.40
44851;DHT22;30583;48.714;9.386;2023-07-31T07:59:41;20.30;58.60
44851;DHT22;30583;48.714;9.386;2023-07-31T08:02:06;20.30;57.80
44851;DHT22;30583;48.714;9.386;2023-07-31T08:04:32;20.30;57.80
44851;DHT22;30583;48.714;9.386;2023-07-31T08:06:58;20.50;57.20
44851;DHT22;30583;48.714;9.386;2023-07-31T08:09:23;20.40;56.90
44851;DHT22;30583;48.714;9.386;2023-07-31T08:11:49;20.70;56.20
44851;DHT22;30583;48.714;9.386;2023-07-31T08:14:14;20.60;56.50
44851;DHT22;30583;48.714;9.386;2023-07-31T08:16:40;20.90;56.10
44851;DHT22;30583;48.714;9.386;2023-07-31T08:19:05;21.10;55.60
44851;DHT22;30583;48.714;9.386;2023-07-31T08:21:31;20.80;55.60
44851;DHT22;30583;48.714;9.386;2023-07-31T08:23:57;20.70;55.90
44851;DHT22;30583;48.714;9.386;2023-07-31T08:26:23;20.90;56.10
44851;DHT22;30583;48.714;9.386;2023-07-31T08:28:48;21.20;56.20
44851;DHT22;30583;48.714;9.386;2023-07-31T08:31:14;21.00;55.40
44851;DHT22;30583;48.714;9.386;2023-07-31T08:33:40;21.20;55.50
44851;DHT22;30583;48.714;9.386;2023-07-31T08:36:06;21.30;54.70
44851;DHT22;30583;48.714;9.386;2023-07-31T08:38:31;21.20;54.80
44851;DHT22;30583;48.714;9.386;2023-07-31T08:40:57;21.20;55.00
44851;DHT22;30583;48.714;9.386;2023-07-31T08:43:26;21.30;54.20
44851;DHT22;30583;48.714;9.386;2023-07-31T08:45:52;21.30;54.30
44851;DHT22;30583;48.714;9.386;2023-07-31T08:48:20;21.40;53.40
44851;DHT22;30583;48.714;9.386;2023-07-31T08:50:46;21.30;54.10
44851;DHT22;30583;48.714;9.386;2023-07-31T08:53:11;21.60;53.40
44851;DHT22;30583;48.714;9.386;2023-07-31T08:55:38;21.70;52.30
44851;DHT22;30583;48.714;9.386;2023-07-31T08:58:04;21.80;52.40
44851;DHT22;30583;48.714;9.386;2023-07-31T09:00:32;22.00;51.70
44851;DHT22;30583;48.714;9.386;2023-07-31T09:03:09;22.20;51.50
44851;DHT22;30583;48.714;9.386;2023-07-31T09:05:36;21.80;51.70
44851;DHT22;30583;48.714;9.386;2023-07-31T09:08:04;21.80;51.90
44851;DHT22;30583;48.714;9.386;2023-07-31T09:10:30;21.60;52.20
44851;DHT22;30583;48.714;9.386;2023-07-31T09:12:56;21.40;52.20
44851;DHT22;30583;48.714;9.386;2023-07-31T09:15:24;21.40;52.50
44851;DHT22;30583;48.714;9.386;2023-07-31T09:17:59;21.40;53.50
44851;DHT22;30583;48.714;9.386;2023-07-31T09:20:26;21.60;52.50
44851;DHT22;30583;48.714;9.386;2023-07-31T09:22:52;21.50;52.50
44851;DHT22;30583;48.714;9.386;2023-07-31T09:25:22;21.90;51.90
44851;DHT22;30583;48.714;9.386;2023-07-31T09:27:49;22.10;51.30
44851;DHT22;30583;48.714;9.386;2023-07-31T09:30:16;22.00;51.30
44851;DHT22;30583;48.714;9.386;2023-07-31T09:32:43;22.20;51.40
44851;DHT22;30583;48.714;9.386;2023-07-31T09:37:52;22.10;50.50
44851;DHT22;30583;48.714;9.386;2023-07-31T09:40:30;22.50;50.80
44851;DHT22;30583;48.714;9.386;2023-07-31T09:42:58;22.50;50.20
44851;DHT22;30583;48.714;9.386;2023-07-31T09:45:24;22.20;50.60
44851;DHT22;30583;48.714;9.386;2023-07-31T09:47:50;22.10;50.50
44851;DHT22;30583;48.714;9.386;2023-07-31T09:50:16;22.00;51.10
44851;DHT22;30583;48.714;9.386;2023-07-31T09:52:42;22.00;50.80
44851;DHT22;30583;48.714;9.386;2023-07-31T09:55:09;21.80;51.20
44851;DHT22;30583;48.714;9.386;2023-07-31T09:57:39;21.80;51.90
44851;DHT22;30583;48.714;9.386;2023-07-31T10:00:05;21.80;52.00
44851;DHT22;30583;48.714;9.386;2023-07-31T10:02:32;21.70;52.10
44851;DHT22;30583;48.714;9.386;2023-07-31T10:05:01;21.80;51.80
44851;DHT22;30583;48.714;9.386;2023-07-31T10:07:30;21.70;52.00
44851;DHT22;30583;48.714;9.386;2023-07-31T10:09:58;22.30;51.20
44851;DHT22;30583;48.714;9.386;2023-07-31T10:12:26;22.70;49.50
44851;DHT22;30583;48.714;9.386;2023-07-31T10:14:54;22.70;50.20
44851;DHT22;30583;48.714;9.386;2023-07-31T10:17:24;22.70;50.30
44851;DHT22;30583;48.714;9.386;2023-07-31T10:19:50;22.90;50.00
44851;DHT22;30583;48.714;9.386;2023-07-31T10:22:16;22.60;49.80
44851;DHT22;30583;48.714;9.386;2023-07-31T10:24:45;23.00;50.30
44851;DHT22;30583;48.714;9.386;2023-07-31T10:27:11;22.70;49.90
44851;DHT22;30583;48.714;9.386;2023-07-31T10:29:41;23.10;50.70
44851;DHT22;30583;48.714;9.386;2023-07-31T10:32:09;23.40;48.60
44851;DHT22;30583;48.714;9.386;2023-07-31T10:34:38;23.50;48.40
44851;DHT22;30583;48.714;9.386;2023-07-31T10:37:27;23.60;48.60
44851;DHT22;30583;48.714;9.386;2023-07-31T10:42:35;23.70;47.30
44851;DHT22;30583;48.714;9.386;2023-07-31T10:45:06;23.50;48.30
44851;DHT22;30583;48.714;9.386;2023-07-31T10:47:43;23.30;49.10
44851;DHT22;30583;48.714;9.386;2023-07-31T10:50:21;23.40;47.80
44851;DHT22;30583;48.714;9.386;2023-07-31T10:52:48;23.60;47.60
44851;DHT22;30583;48.714;9.386;2023-07-31T10:57:44;23.70;47.50
44851;DHT22;30583;48.714;9.386;2023-07-31T11:00:28;23.20;48.10
44851;DHT22;30583;48.714;9.386;2023-07-31T11:03:03;23.50;48.40
44851;DHT22;30583;48.714;9.386;2023-07-31T11:08:23;23.70;48.10
44851;DHT22;30583;48.714;9.386;2023-07-31T11:10:51;24.00;46.90
44851;DHT22;30583;48.714;9.386;2023-07-31T11:13:17;23.90;46.70
44851;DHT22;30583;48.714;9.386;2023-07-31T11:15:43;23.70;47.50
44851;DHT22;30583;48.714;9.386;2023-07-31T11:18:08;23.70;47.00
44851;DHT22;30583;48.714;9.386;2023-07-31T11:20:37;23.80;47.30
44851;DHT22;30583;48.714;9.386;2023-07-31T11:23:07;23.70;47.40
44851;DHT22;30583;48.714;9.386;2023-07-31T11:25:34;23.70;48.00
44851;DHT22;30583;48.714;9.386;2023-07-31T11:28:10;23.70;47.40
44851;DHT22;30583;48.714;9.386;2023-07-31T11:30:37;23.40;47.40
44851;DHT22;30583;48.714;9.386;2023-07-31T11:33:04;23.40;48.30
44851;DHT22;30583;48.714;9.386;2023-07-31T11:35:40;23.40;48.20
44851;DHT22;30583;48.714;9.386;2023-07-31T11:38:07;23.10;48.10
44851;DHT22;30583;48.714;9.386;2023-07-31T11:40:41;23.20;49.40
44851;DHT22;30583;48.714;9.386;2023-07-31T11:43:07;23.10;48.30
44851;DHT22;30583;48.714;9.386;2023-07-31T11:45:33;23.10;48.80
44851;DHT22;30583;48.714;9.386;2023-07-31T11:48:00;23.20;49.10
44851;DHT22;30583;48.714;9.386;2023-07-31T11:50:26;23.10;49.00
44851;DHT22;30583;48.714;9.386;2023-07-31T11:53:01;23.10;49.20
44851;DHT22;30583;48.714;9.386;2023-07-31T11:55:28;23.00;48.90
44851;DHT22;30583;48.714;9.386;2023-07-31T11:57:55;23.10;49.50
44851;DHT22;30583;48.714;9.386;2023-07-31T12:00:22;23.20;49.50
44851;DHT22;30583;48.714;9.386;2023-07-31T12:02:50;23.00;49.20
44851;DHT22;30583;48.714;9.386;2023-07-31T12:05:16;22.80;48.90
44851;DHT22;30583;48.714;9.386;2023-07-31T12:07:53;22.80;49.10
44851;DHT22;30583;48.714;9.386;2023-07-31T12:10:24;22.70;50.00
44851;DHT22;30583;48.714;9.386;2023-07-31T12:13:01;22.90;50.00
44851;DHT22;30583;48.714;9.386;2023-07-31T12:15:33;22.90;50.00
44851;DHT22;30583;48.714;9.386;2023-07-31T12:17:58;22.90;50.00
44851;DHT22;30583;48.714;9.386;2023-07-31T12:20:24;22.90;49.80
44851;DHT22;30583;48.714;9.386;2023-07-31T12:22:50;22.80;50.30
44851;DHT22;30583;48.714;9.386;2023-07-31T12:25:16;22.70;50.30
44851;DHT22;30583;48.714;9.386;2023-07-31T12:27:44;22.70;51.30
44851;DHT22;30583;48.714;9.386;2023-07-31T12:30:29;22.70;51.20
44851;DHT22;30583;48.714;9.386;2023-07-31T12:32:54;22.80;51.00
44851;DHT22;30583;48.714;9.386;2023-07-31T12:35:20;22.80;50.90
44851;DHT22;30583;48.714;9.386;2023-07-31T12:37:46;22.80;50.80
44851;DHT22;30583;48.714;9.386;2023-07-31T12:40:11;22.70;50.80
44851;DHT22;30583;48.714;9.386;2023-07-31T12:42:38;22.70;50.80
44851;DHT22;30583;48.714;9.386;2023-07-31T12:45:03;22.70;50.90
44851;DHT22;30583;48.714;9.386;2023-07-31T12:47:29;22.70;51.30
44851;DHT22;30583;48.714;9.386;2023-07-31T12:49:55;22.70;51.40
44851;DHT22;30583;48.714;9.386;2023-07-31T12:52:21;22.70;52.10
44851;DHT22;30583;48.714;9.386;2023-07-31T12:54:46;22.70;52.40
44851;DHT22;30583;48.714;9.386;2023-07-31T12:57:12;22.70;52.10
44851;DHT22;30583;48.714;9.386;2023-07-31T12:59:37;22.70;51.80
44851;DHT22;30583;48.714;9.386;2023-07-31T13:02:03;22.70;52.10
44851;DHT22;30583;48.714;9.386;2023-07-31T13:04:28;22.50;51.50
44851;DHT22;30583;48.714;9.386;2023-07-31T13:06:54;22.60;52.00
44851;DHT22;30583;48.714;9.386;2023-07-31T13:09:20;22.70;52.00
44851;DHT22;30583;48.714;9.386;2023-07-31T13:11:45;22.60;51.80
44851;DHT22;30583;48.714;9.386;2023-07-31T13:14:11;22.60;51.90
44851;DHT22;30583;48.714;9.386;2023-07-31T13:16:37;22.60;52.20
44851;DHT22;30583;48.714;9.386;2023-07-31T13:19:03;22.50;52.30
44851;DHT22;30583;48.714;9.386;2023-07-31T13:21:29;22.60;52.40
44851;DHT22;30583;48.714;9.386;2023-07-31T13:23:54;22.60;52.50
44851;DHT22;30583;48.714;9.386;2023-07-31T13:26:23;22.50;52.50
44851;DHT22;30583;48.714;9.386;2023-07-31T13:28:48;22.50;52.30
44851;DHT22;30583;48.714;9.386;2023-07-31T13:31:14;22.50;52.60
44851;DHT22;30583;48.714;9.386;2023-07-31T13:33:40;22.40;52.40
44851;DHT22;30583;48.714;9.386;2023-07-31T13:36:05;22.50;52.50
44851;DHT22;30583;48.714;9.386;2023-07-31T13:38:31;22.40;52.70
44851;DHT22;30583;48.714;9.386;2023-07-31T13:40:56;22.40;53.00
44851;DHT22;30583;48.714;9.386;2023-07-31T13:43:22;22.50;53.30
44851;DHT22;30583;48.714;9.386;2023-07-31T13:45:48;22.50;53.30
44851;DHT22;30583;48.714;9.386;2023-07-31T13:48:13;22.50;53.10
44851;DHT22;30583;48.714;9.386;2023-07-31T13:50:39;22.50;53.00
44851;DHT22;30583;48.714;9.386;2023-07-31T13:53:04;22.60;53.10
44851;DHT22;30583;48.714;9.386;2023-07-31T13:55:30;22.60;53.30
44851;DHT22;30583;48.714;9.386;2023-07-31T13:57:55;22.50;52.80
44851;DHT22;30583;48.714;9.386;2023-07-31T14:00:21;22.50;53.10
44851;DHT22;30583;48.714;9.386;2023-07-31T14:02:47;22.60;52.70
44851;DHT22;30583;48.714;9.386;2023-07-31T14:05:13;22.60;52.80
44851;DHT22;30583;48.714;9.386;2023-07-31T14:07:38;22.60;53.10
44851;DHT22;30583;48.714;9.386;2023-07-31T14:10:04;22.60;52.70
44851;DHT22;30583;48.714;9.386;2023-07-31T14:12:30;22.60;52.70
44851;DHT22;30583;48.714;9.386;2023-07-31T14:14:56;22.70;52.80
44851;DHT22;30583;48.714;9.386;2023-07-31T14:17:21;22.70;52.20
44851;DHT22;30583;48.714;9.386;2023-07-31T14:19:47;22.80;52.40
44851;DHT22;30583;48.714;9.386;2023-07-31T14:22:12;22.80;52.20
44851;DHT22;30583;48.714;9.386;2023-07-31T14:24:38;22.90;52.70
44851;DHT22;30583;48.714;9.386;2023-07-31T14:27:04;22.90;52.00
44851;DHT22;30583;48.714;9.386;2023-07-31T14:29:30;22.90;52.50
44851;DHT22;30583;48.714;9.386;2023-07-31T14:31:56;23.00;52.80
44851;DHT22;30583;48.714;9.386;2023-07-31T14:34:21;23.00;53.00
44851;DHT22;30583;48.714;9.386;2023-07-31T14:36:47;23.10;53.00
44851;DHT22;30583;48.714;9.386;2023-07-31T14:39:13;23.10;53.40
44851;DHT22;30583;48.714;9.386;2023-07-31T14:41:38;23.10;53.20
44851;DHT22;30583;48.714;9.386;2023-07-31T14:44:04;22.90;53.30
44851;DHT22;30583;48.714;9.386;2023-07-31T14:46:29;22.90;53.70
44851;DHT22;30583;48.714;9.386;2023-07-31T14:48:55;22.90;53.60
44851;DHT22;30583;48.714;9.386;2023-07-31T14:51:21;22.90;53.30
44851;DHT22;30583;48.714;9.386;2023-07-31T14:53:46;22.90;53.60
44851;DHT22;30583;48.714;9.386;2023-07-31T14:56:12;22.90;53.00
44851;DHT22;30583;48.714;9.386;2023-07-31T14:58:38;23.00;52.70
44851;DHT22;30583;48.714;9.386;2023-07-31T15:01:03;23.00;52.60
44851;DHT22;30583;48.714;9.386;2023-07-31T15:03:29;23.10;52.80
44851;DHT22;30583;48.714;9.386;2023-07-31T15:05:55;23.00;51.50
44851;DHT22;30583;48.714;9.386;2023-07-31T15:08:20;23.00;52.00
44851;DHT22;30583;48.714;9.386;2023-07-31T15:10:46;23.00;52.00
44851;DHT22;30583;48.714;9.386;2023-07-31T15:13:11;23.00;52.10
44851;DHT22;30583;48.714;9.386;2023-07-31T15:15:37;22.90;51.70
44851;DHT22;30583;48.714;9.386;2023-07-31T15:18:03;23.00;51.90
44851;DHT22;30583;48.714;9.386;2023-07-31T15:20:28;23.00;52.30
44851;DHT22;30583;48.714;9.386;2023-07-31T15:22:55;22.90;52.00
44851;DHT22;30583;48.714;9.386;2023-07-31T15:25:20;22.90;51.40
44851;DHT22;30583;48.714;9.386;2023-07-31T15:27:46;22.90;51.60
44851;DHT22;30583;48.714;9.386;2023-07-31T15:30:12;22.90;51.90
44851;DHT22;30583;48.714;9.386;2023-07-31T15:32:38;23.10;52.40
44851;DHT22;30583;48.714;9.386;2023-07-31T15:35:05;23.40;51.30
44851;DHT22;30583;48.714;9.386;2023-07-31T15:37:31;23.40;51.10
44851;DHT22;30583;48.714;9.386;2023-07-31T15:39:56;23.60;50.80
44851;DHT22;30583;48.714;9.386;2023-07-31T15:42:22;23.70;50.50